<?xml version="1.0" encoding="UTF-8" standalone="no" ?>
<gpx xmlns="http://www.topografix.com/GPX/1/1" xmlns:xsi="http://www.w3.org/2001/XMLSchema-instance" xsi:schemaLocation="http://www.topografix.com/GPX/1/1 http://www.topografix.com/GPX/1/1/gpx.xsd" version="1.1" creator="VisuGPX - https://www.visugpx.com">
  <metadata>
    <name>R 093 Cayola par le sentier de la Mine</name>
  </metadata>
  <trk>
    <name><![CDATA[La Baie de Cayola par le sentier de la Mine]]></name>
    <trkseg>
      <trkpt lat="46.44654" lon="-1.67889">
        <ele>17</ele>
        <time>2017-04-30T21:27:05+02:00</time>
      </trkpt>
      <trkpt lat="46.44637" lon="-1.67871">
        <ele>17</ele>
        <time>2017-04-30T21:27:10+02:00</time>
      </trkpt>
      <trkpt lat="46.44608" lon="-1.67868">
        <ele>15</ele>
        <time>2017-04-30T21:27:15+02:00</time>
      </trkpt>
      <trkpt lat="46.44591" lon="-1.67848">
        <ele>14</ele>
        <time>2017-04-30T21:27:20+02:00</time>
      </trkpt>
      <trkpt lat="46.44559" lon="-1.67831">
        <ele>13</ele>
        <time>2017-04-30T21:27:25+02:00</time>
      </trkpt>
      <trkpt lat="46.44534" lon="-1.67806">
        <ele>12</ele>
        <time>2017-04-30T21:27:30+02:00</time>
      </trkpt>
      <trkpt lat="46.44499" lon="-1.67807">
        <ele>12</ele>
        <time>2017-04-30T21:27:35+02:00</time>
      </trkpt>
      <trkpt lat="46.44481" lon="-1.67815">
        <ele>12</ele>
        <time>2017-04-30T21:27:40+02:00</time>
      </trkpt>
      <trkpt lat="46.44424" lon="-1.67813">
        <ele>13</ele>
        <time>2017-04-30T21:27:45+02:00</time>
      </trkpt>
      <trkpt lat="46.44428" lon="-1.67751">
        <ele>12</ele>
        <time>2017-04-30T21:27:50+02:00</time>
      </trkpt>
      <trkpt lat="46.44394" lon="-1.67763">
        <ele>12</ele>
        <time>2017-04-30T21:27:55+02:00</time>
      </trkpt>
      <trkpt lat="46.44375" lon="-1.67782">
        <ele>11</ele>
        <time>2017-04-30T21:28:00+02:00</time>
      </trkpt>
      <trkpt lat="46.4436" lon="-1.67785">
        <ele>11</ele>
        <time>2017-04-30T21:28:05+02:00</time>
      </trkpt>
      <trkpt lat="46.4434" lon="-1.67748">
        <ele>10</ele>
        <time>2017-04-30T21:28:10+02:00</time>
      </trkpt>
      <trkpt lat="46.44325" lon="-1.67745">
        <ele>10</ele>
        <time>2017-04-30T21:28:15+02:00</time>
      </trkpt>
      <trkpt lat="46.44281" lon="-1.67777">
        <ele>12</ele>
        <time>2017-04-30T21:28:20+02:00</time>
      </trkpt>
      <trkpt lat="46.44255" lon="-1.67765">
        <ele>13</ele>
        <time>2017-04-30T21:28:25+02:00</time>
      </trkpt>
      <trkpt lat="46.44232" lon="-1.67756">
        <ele>13</ele>
        <time>2017-04-30T21:28:30+02:00</time>
      </trkpt>
      <trkpt lat="46.44213" lon="-1.67725">
        <ele>13</ele>
        <time>2017-04-30T21:28:35+02:00</time>
      </trkpt>
      <trkpt lat="46.44194" lon="-1.67734">
        <ele>13</ele>
        <time>2017-04-30T21:28:40+02:00</time>
      </trkpt>
      <trkpt lat="46.44153" lon="-1.6775">
        <ele>11</ele>
        <time>2017-04-30T21:28:45+02:00</time>
      </trkpt>
      <trkpt lat="46.44144" lon="-1.67768">
        <ele>10</ele>
        <time>2017-04-30T21:28:50+02:00</time>
      </trkpt>
      <trkpt lat="46.44141" lon="-1.6783">
        <ele>9</ele>
        <time>2017-04-30T21:28:55+02:00</time>
      </trkpt>
      <trkpt lat="46.44153" lon="-1.67899">
        <ele>11</ele>
        <time>2017-04-30T21:29:00+02:00</time>
      </trkpt>
      <trkpt lat="46.44153" lon="-1.67955">
        <ele>10</ele>
        <time>2017-04-30T21:29:05+02:00</time>
      </trkpt>
      <trkpt lat="46.44156" lon="-1.67992">
        <ele>10</ele>
        <time>2017-04-30T21:29:10+02:00</time>
      </trkpt>
      <trkpt lat="46.44153" lon="-1.68028">
        <ele>9</ele>
        <time>2017-04-30T21:29:15+02:00</time>
      </trkpt>
      <trkpt lat="46.44149" lon="-1.68039">
        <ele>8</ele>
        <time>2017-04-30T21:29:20+02:00</time>
      </trkpt>
      <trkpt lat="46.44157" lon="-1.68068">
        <ele>8</ele>
        <time>2017-04-30T21:29:25+02:00</time>
      </trkpt>
      <trkpt lat="46.4416" lon="-1.68106">
        <ele>8</ele>
        <time>2017-04-30T21:29:30+02:00</time>
      </trkpt>
      <trkpt lat="46.44164" lon="-1.68146">
        <ele>8</ele>
        <time>2017-04-30T21:29:35+02:00</time>
      </trkpt>
      <trkpt lat="46.4417" lon="-1.6818">
        <ele>8</ele>
        <time>2017-04-30T21:29:40+02:00</time>
      </trkpt>
      <trkpt lat="46.44175" lon="-1.68237">
        <ele>6</ele>
        <time>2017-04-30T21:29:45+02:00</time>
      </trkpt>
      <trkpt lat="46.4419" lon="-1.68275">
        <ele>7</ele>
        <time>2017-04-30T21:29:50+02:00</time>
      </trkpt>
      <trkpt lat="46.44202" lon="-1.68294">
        <ele>8</ele>
        <time>2017-04-30T21:29:55+02:00</time>
      </trkpt>
      <trkpt lat="46.44214" lon="-1.68297">
        <ele>10</ele>
        <time>2017-04-30T21:30:00+02:00</time>
      </trkpt>
      <trkpt lat="46.44216" lon="-1.68311">
        <ele>10</ele>
        <time>2017-04-30T21:30:05+02:00</time>
      </trkpt>
      <trkpt lat="46.44217" lon="-1.68341">
        <ele>10</ele>
        <time>2017-04-30T21:30:10+02:00</time>
      </trkpt>
      <trkpt lat="46.44216" lon="-1.68371">
        <ele>9</ele>
        <time>2017-04-30T21:30:15+02:00</time>
      </trkpt>
      <trkpt lat="46.44216" lon="-1.68395">
        <ele>9</ele>
        <time>2017-04-30T21:30:20+02:00</time>
      </trkpt>
      <trkpt lat="46.44221" lon="-1.68425">
        <ele>9</ele>
        <time>2017-04-30T21:30:25+02:00</time>
      </trkpt>
      <trkpt lat="46.44218" lon="-1.68456">
        <ele>8</ele>
        <time>2017-04-30T21:30:30+02:00</time>
      </trkpt>
      <trkpt lat="46.4423" lon="-1.68505">
        <ele>9</ele>
        <time>2017-04-30T21:30:35+02:00</time>
      </trkpt>
      <trkpt lat="46.44234" lon="-1.68523">
        <ele>9</ele>
        <time>2017-04-30T21:30:40+02:00</time>
      </trkpt>
      <trkpt lat="46.44248" lon="-1.6854">
        <ele>10</ele>
        <time>2017-04-30T21:30:45+02:00</time>
      </trkpt>
      <trkpt lat="46.44262" lon="-1.68548">
        <ele>11</ele>
        <time>2017-04-30T21:30:50+02:00</time>
      </trkpt>
      <trkpt lat="46.44264" lon="-1.68562">
        <ele>11</ele>
        <time>2017-04-30T21:30:55+02:00</time>
      </trkpt>
      <trkpt lat="46.44263" lon="-1.68593">
        <ele>10</ele>
        <time>2017-04-30T21:31:00+02:00</time>
      </trkpt>
      <trkpt lat="46.44262" lon="-1.68631">
        <ele>9</ele>
        <time>2017-04-30T21:31:05+02:00</time>
      </trkpt>
      <trkpt lat="46.44265" lon="-1.68699">
        <ele>8</ele>
        <time>2017-04-30T21:31:10+02:00</time>
      </trkpt>
      <trkpt lat="46.44275" lon="-1.68725">
        <ele>9</ele>
        <time>2017-04-30T21:31:15+02:00</time>
      </trkpt>
      <trkpt lat="46.4428" lon="-1.68752">
        <ele>9</ele>
        <time>2017-04-30T21:31:20+02:00</time>
      </trkpt>
      <trkpt lat="46.44275" lon="-1.6884">
        <ele>7</ele>
        <time>2017-04-30T21:31:25+02:00</time>
      </trkpt>
      <trkpt lat="46.4428" lon="-1.68851">
        <ele>8</ele>
        <time>2017-04-30T21:31:30+02:00</time>
      </trkpt>
      <trkpt lat="46.44276" lon="-1.68882">
        <ele>6</ele>
        <time>2017-04-30T21:31:35+02:00</time>
      </trkpt>
      <trkpt lat="46.4428" lon="-1.68919">
        <ele>6</ele>
        <time>2017-04-30T21:31:40+02:00</time>
      </trkpt>
      <trkpt lat="46.4429" lon="-1.68945">
        <ele>6</ele>
        <time>2017-04-30T21:31:45+02:00</time>
      </trkpt>
      <trkpt lat="46.44307" lon="-1.68986">
        <ele>6</ele>
        <time>2017-04-30T21:31:50+02:00</time>
      </trkpt>
      <trkpt lat="46.44327" lon="-1.68995">
        <ele>8</ele>
        <time>2017-04-30T21:31:55+02:00</time>
      </trkpt>
      <trkpt lat="46.44342" lon="-1.69019">
        <ele>8</ele>
        <time>2017-04-30T21:32:00+02:00</time>
      </trkpt>
      <trkpt lat="46.4436" lon="-1.6907">
        <ele>8</ele>
        <time>2017-04-30T21:32:05+02:00</time>
      </trkpt>
      <trkpt lat="46.4437" lon="-1.69121">
        <ele>7</ele>
        <time>2017-04-30T21:32:10+02:00</time>
      </trkpt>
      <trkpt lat="46.44383" lon="-1.69149">
        <ele>7</ele>
        <time>2017-04-30T21:32:15+02:00</time>
      </trkpt>
      <trkpt lat="46.44395" lon="-1.69172">
        <ele>7</ele>
        <time>2017-04-30T21:32:20+02:00</time>
      </trkpt>
      <trkpt lat="46.44441" lon="-1.69216">
        <ele>9</ele>
        <time>2017-04-30T21:32:25+02:00</time>
      </trkpt>
      <trkpt lat="46.44464" lon="-1.69269">
        <ele>8</ele>
        <time>2017-04-30T21:32:30+02:00</time>
      </trkpt>
      <trkpt lat="46.44475" lon="-1.69315">
        <ele>8</ele>
        <time>2017-04-30T21:32:35+02:00</time>
      </trkpt>
      <trkpt lat="46.44489" lon="-1.69341">
        <ele>8</ele>
        <time>2017-04-30T21:32:40+02:00</time>
      </trkpt>
      <trkpt lat="46.44489" lon="-1.69366">
        <ele>7</ele>
        <time>2017-04-30T21:32:45+02:00</time>
      </trkpt>
      <trkpt lat="46.44501" lon="-1.69398">
        <ele>6</ele>
        <time>2017-04-30T21:32:50+02:00</time>
      </trkpt>
      <trkpt lat="46.44506" lon="-1.69415">
        <ele>6</ele>
        <time>2017-04-30T21:32:55+02:00</time>
      </trkpt>
      <trkpt lat="46.44512" lon="-1.69434">
        <ele>5</ele>
        <time>2017-04-30T21:33:00+02:00</time>
      </trkpt>
      <trkpt lat="46.44517" lon="-1.69447">
        <ele>4</ele>
        <time>2017-04-30T21:33:05+02:00</time>
      </trkpt>
      <trkpt lat="46.44526" lon="-1.6946">
        <ele>4</ele>
        <time>2017-04-30T21:33:10+02:00</time>
      </trkpt>
      <trkpt lat="46.44536" lon="-1.69467">
        <ele>4</ele>
        <time>2017-04-30T21:33:15+02:00</time>
      </trkpt>
      <trkpt lat="46.44566" lon="-1.6946">
        <ele>7</ele>
        <time>2017-04-30T21:33:20+02:00</time>
      </trkpt>
      <trkpt lat="46.44585" lon="-1.69472">
        <ele>7</ele>
        <time>2017-04-30T21:33:25+02:00</time>
      </trkpt>
      <trkpt lat="46.44594" lon="-1.69498">
        <ele>5</ele>
        <time>2017-04-30T21:33:30+02:00</time>
      </trkpt>
      <trkpt lat="46.4461" lon="-1.6951">
        <ele>5</ele>
        <time>2017-04-30T21:33:35+02:00</time>
      </trkpt>
      <trkpt lat="46.44633" lon="-1.69527">
        <ele>5</ele>
        <time>2017-04-30T21:33:40+02:00</time>
      </trkpt>
      <trkpt lat="46.44656" lon="-1.6954">
        <ele>5</ele>
        <time>2017-04-30T21:33:45+02:00</time>
      </trkpt>
      <trkpt lat="46.44654" lon="-1.69548">
        <ele>4</ele>
        <time>2017-04-30T21:33:50+02:00</time>
      </trkpt>
      <trkpt lat="46.44676" lon="-1.69561">
        <ele>5</ele>
        <time>2017-04-30T21:33:55+02:00</time>
      </trkpt>
      <trkpt lat="46.44683" lon="-1.69571">
        <ele>5</ele>
        <time>2017-04-30T21:34:00+02:00</time>
      </trkpt>
      <trkpt lat="46.44692" lon="-1.69579">
        <ele>6</ele>
        <time>2017-04-30T21:34:05+02:00</time>
      </trkpt>
      <trkpt lat="46.44704" lon="-1.69594">
        <ele>6</ele>
        <time>2017-04-30T21:34:10+02:00</time>
      </trkpt>
      <trkpt lat="46.44723" lon="-1.69622">
        <ele>7</ele>
        <time>2017-04-30T21:34:15+02:00</time>
      </trkpt>
      <trkpt lat="46.44737" lon="-1.69642">
        <ele>7</ele>
        <time>2017-04-30T21:34:20+02:00</time>
      </trkpt>
      <trkpt lat="46.44747" lon="-1.69668">
        <ele>6</ele>
        <time>2017-04-30T21:34:25+02:00</time>
      </trkpt>
      <trkpt lat="46.44757" lon="-1.69692">
        <ele>8</ele>
        <time>2017-04-30T21:34:30+02:00</time>
      </trkpt>
      <trkpt lat="46.44764" lon="-1.69716">
        <ele>9</ele>
        <time>2017-04-30T21:34:35+02:00</time>
      </trkpt>
      <trkpt lat="46.44764" lon="-1.69738">
        <ele>10</ele>
        <time>2017-04-30T21:34:40+02:00</time>
      </trkpt>
      <trkpt lat="46.44733" lon="-1.698">
        <ele>7</ele>
        <time>2017-04-30T21:34:45+02:00</time>
      </trkpt>
      <trkpt lat="46.44729" lon="-1.69836">
        <ele>6</ele>
        <time>2017-04-30T21:34:50+02:00</time>
      </trkpt>
      <trkpt lat="46.44742" lon="-1.69849">
        <ele>7</ele>
        <time>2017-04-30T21:34:55+02:00</time>
      </trkpt>
      <trkpt lat="46.44751" lon="-1.69879">
        <ele>7</ele>
        <time>2017-04-30T21:35:00+02:00</time>
      </trkpt>
      <trkpt lat="46.44761" lon="-1.69926">
        <ele>6</ele>
        <time>2017-04-30T21:35:05+02:00</time>
      </trkpt>
      <trkpt lat="46.44769" lon="-1.69975">
        <ele>5</ele>
        <time>2017-04-30T21:35:10+02:00</time>
      </trkpt>
      <trkpt lat="46.44784" lon="-1.70023">
        <ele>6</ele>
        <time>2017-04-30T21:35:15+02:00</time>
      </trkpt>
      <trkpt lat="46.44792" lon="-1.70088">
        <ele>6</ele>
        <time>2017-04-30T21:35:20+02:00</time>
      </trkpt>
      <trkpt lat="46.44812" lon="-1.70128">
        <ele>7</ele>
        <time>2017-04-30T21:35:25+02:00</time>
      </trkpt>
      <trkpt lat="46.44834" lon="-1.70168">
        <ele>8</ele>
        <time>2017-04-30T21:35:30+02:00</time>
      </trkpt>
      <trkpt lat="46.44829" lon="-1.70186">
        <ele>7</ele>
        <time>2017-04-30T21:35:35+02:00</time>
      </trkpt>
      <trkpt lat="46.44829" lon="-1.70233">
        <ele>5</ele>
        <time>2017-04-30T21:35:40+02:00</time>
      </trkpt>
      <trkpt lat="46.44848" lon="-1.70256">
        <ele>7</ele>
        <time>2017-04-30T21:35:45+02:00</time>
      </trkpt>
      <trkpt lat="46.4486" lon="-1.7027">
        <ele>7</ele>
        <time>2017-04-30T21:35:50+02:00</time>
      </trkpt>
      <trkpt lat="46.44873" lon="-1.70303">
        <ele>8</ele>
        <time>2017-04-30T21:35:55+02:00</time>
      </trkpt>
      <trkpt lat="46.44881" lon="-1.70355">
        <ele>7</ele>
        <time>2017-04-30T21:36:00+02:00</time>
      </trkpt>
      <trkpt lat="46.44887" lon="-1.70366">
        <ele>8</ele>
        <time>2017-04-30T21:36:05+02:00</time>
      </trkpt>
      <trkpt lat="46.44897" lon="-1.70401">
        <ele>7</ele>
        <time>2017-04-30T21:36:10+02:00</time>
      </trkpt>
      <trkpt lat="46.44907" lon="-1.70443">
        <ele>6</ele>
        <time>2017-04-30T21:36:15+02:00</time>
      </trkpt>
      <trkpt lat="46.44915" lon="-1.70478">
        <ele>5</ele>
        <time>2017-04-30T21:36:20+02:00</time>
      </trkpt>
      <trkpt lat="46.44945" lon="-1.70499">
        <ele>7</ele>
        <time>2017-04-30T21:36:25+02:00</time>
      </trkpt>
      <trkpt lat="46.44973" lon="-1.70533">
        <ele>7</ele>
        <time>2017-04-30T21:36:30+02:00</time>
      </trkpt>
      <trkpt lat="46.44982" lon="-1.70562">
        <ele>6</ele>
        <time>2017-04-30T21:36:35+02:00</time>
      </trkpt>
      <trkpt lat="46.44988" lon="-1.70586">
        <ele>5</ele>
        <time>2017-04-30T21:36:40+02:00</time>
      </trkpt>
      <trkpt lat="46.45003" lon="-1.7062">
        <ele>4</ele>
        <time>2017-04-30T21:36:45+02:00</time>
      </trkpt>
      <trkpt lat="46.45031" lon="-1.70611">
        <ele>6</ele>
        <time>2017-04-30T21:36:50+02:00</time>
      </trkpt>
      <trkpt lat="46.45045" lon="-1.70624">
        <ele>7</ele>
        <time>2017-04-30T21:36:55+02:00</time>
      </trkpt>
      <trkpt lat="46.45056" lon="-1.70641">
        <ele>7</ele>
        <time>2017-04-30T21:37:00+02:00</time>
      </trkpt>
      <trkpt lat="46.45059" lon="-1.70659">
        <ele>6</ele>
        <time>2017-04-30T21:37:05+02:00</time>
      </trkpt>
      <trkpt lat="46.4507" lon="-1.7068">
        <ele>6</ele>
        <time>2017-04-30T21:37:10+02:00</time>
      </trkpt>
      <trkpt lat="46.45075" lon="-1.70704">
        <ele>6</ele>
        <time>2017-04-30T21:37:15+02:00</time>
      </trkpt>
      <trkpt lat="46.45108" lon="-1.70759">
        <ele>7</ele>
        <time>2017-04-30T21:37:20+02:00</time>
      </trkpt>
      <trkpt lat="46.45104" lon="-1.70779">
        <ele>7</ele>
        <time>2017-04-30T21:37:25+02:00</time>
      </trkpt>
      <trkpt lat="46.45105" lon="-1.70807">
        <ele>7</ele>
        <time>2017-04-30T21:37:30+02:00</time>
      </trkpt>
      <trkpt lat="46.45086" lon="-1.70824">
        <ele>4</ele>
        <time>2017-04-30T21:37:35+02:00</time>
      </trkpt>
      <trkpt lat="46.45088" lon="-1.70856">
        <ele>4</ele>
        <time>2017-04-30T21:37:40+02:00</time>
      </trkpt>
      <trkpt lat="46.45098" lon="-1.70879">
        <ele>4</ele>
        <time>2017-04-30T21:37:45+02:00</time>
      </trkpt>
      <trkpt lat="46.45105" lon="-1.70916">
        <ele>3</ele>
        <time>2017-04-30T21:37:50+02:00</time>
      </trkpt>
      <trkpt lat="46.4511" lon="-1.7095">
        <ele>3</ele>
        <time>2017-04-30T21:37:55+02:00</time>
      </trkpt>
      <trkpt lat="46.45122" lon="-1.70967">
        <ele>5</ele>
        <time>2017-04-30T21:38:00+02:00</time>
      </trkpt>
      <trkpt lat="46.45125" lon="-1.70989">
        <ele>5</ele>
        <time>2017-04-30T21:38:05+02:00</time>
      </trkpt>
      <trkpt lat="46.45121" lon="-1.7101">
        <ele>4</ele>
        <time>2017-04-30T21:38:10+02:00</time>
      </trkpt>
      <trkpt lat="46.45131" lon="-1.71037">
        <ele>3</ele>
        <time>2017-04-30T21:38:15+02:00</time>
      </trkpt>
      <trkpt lat="46.45145" lon="-1.71061">
        <ele>4</ele>
        <time>2017-04-30T21:38:20+02:00</time>
      </trkpt>
      <trkpt lat="46.45168" lon="-1.71084">
        <ele>4</ele>
        <time>2017-04-30T21:38:25+02:00</time>
      </trkpt>
      <trkpt lat="46.45184" lon="-1.71086">
        <ele>4</ele>
        <time>2017-04-30T21:38:30+02:00</time>
      </trkpt>
      <trkpt lat="46.45205" lon="-1.71077">
        <ele>5</ele>
        <time>2017-04-30T21:38:35+02:00</time>
      </trkpt>
      <trkpt lat="46.45219" lon="-1.71101">
        <ele>4</ele>
        <time>2017-04-30T21:38:40+02:00</time>
      </trkpt>
      <trkpt lat="46.45238" lon="-1.71102">
        <ele>4</ele>
        <time>2017-04-30T21:38:45+02:00</time>
      </trkpt>
      <trkpt lat="46.4525" lon="-1.71089">
        <ele>6</ele>
        <time>2017-04-30T21:38:50+02:00</time>
      </trkpt>
      <trkpt lat="46.45269" lon="-1.71071">
        <ele>7</ele>
        <time>2017-04-30T21:38:55+02:00</time>
      </trkpt>
      <trkpt lat="46.45284" lon="-1.71051">
        <ele>9</ele>
        <time>2017-04-30T21:39:00+02:00</time>
      </trkpt>
      <trkpt lat="46.45298" lon="-1.71052">
        <ele>8</ele>
        <time>2017-04-30T21:39:05+02:00</time>
      </trkpt>
      <trkpt lat="46.45307" lon="-1.7104">
        <ele>9</ele>
        <time>2017-04-30T21:39:10+02:00</time>
      </trkpt>
      <trkpt lat="46.45323" lon="-1.71048">
        <ele>8</ele>
        <time>2017-04-30T21:39:15+02:00</time>
      </trkpt>
      <trkpt lat="46.45338" lon="-1.71059">
        <ele>7</ele>
        <time>2017-04-30T21:39:20+02:00</time>
      </trkpt>
      <trkpt lat="46.45355" lon="-1.71052">
        <ele>8</ele>
        <time>2017-04-30T21:39:25+02:00</time>
      </trkpt>
      <trkpt lat="46.45363" lon="-1.71044">
        <ele>9</ele>
        <time>2017-04-30T21:39:30+02:00</time>
      </trkpt>
      <trkpt lat="46.45397" lon="-1.71094">
        <ele>8</ele>
        <time>2017-04-30T21:39:35+02:00</time>
      </trkpt>
      <trkpt lat="46.45391" lon="-1.71117">
        <ele>6</ele>
        <time>2017-04-30T21:39:40+02:00</time>
      </trkpt>
      <trkpt lat="46.45404" lon="-1.71157">
        <ele>5</ele>
        <time>2017-04-30T21:39:45+02:00</time>
      </trkpt>
      <trkpt lat="46.45417" lon="-1.71175">
        <ele>5</ele>
        <time>2017-04-30T21:39:50+02:00</time>
      </trkpt>
      <trkpt lat="46.45428" lon="-1.71172">
        <ele>5</ele>
        <time>2017-04-30T21:39:55+02:00</time>
      </trkpt>
      <trkpt lat="46.45437" lon="-1.71187">
        <ele>5</ele>
        <time>2017-04-30T21:40:00+02:00</time>
      </trkpt>
      <trkpt lat="46.45427" lon="-1.71206">
        <ele>3</ele>
        <time>2017-04-30T21:40:05+02:00</time>
      </trkpt>
      <trkpt lat="46.45429" lon="-1.71217">
        <ele>3</ele>
        <time>2017-04-30T21:40:10+02:00</time>
      </trkpt>
      <trkpt lat="46.45439" lon="-1.71218">
        <ele>3</ele>
        <time>2017-04-30T21:40:15+02:00</time>
      </trkpt>
      <trkpt lat="46.45455" lon="-1.71204">
        <ele>4</ele>
        <time>2017-04-30T21:40:20+02:00</time>
      </trkpt>
      <trkpt lat="46.45476" lon="-1.71196">
        <ele>5</ele>
        <time>2017-04-30T21:40:25+02:00</time>
      </trkpt>
      <trkpt lat="46.4549" lon="-1.71179">
        <ele>7</ele>
        <time>2017-04-30T21:40:30+02:00</time>
      </trkpt>
      <trkpt lat="46.45593" lon="-1.71202">
        <ele>9</ele>
        <time>2017-04-30T21:40:35+02:00</time>
      </trkpt>
      <trkpt lat="46.4563" lon="-1.7121">
        <ele>10</ele>
        <time>2017-04-30T21:40:40+02:00</time>
      </trkpt>
      <trkpt lat="46.45664" lon="-1.7123">
        <ele>9</ele>
        <time>2017-04-30T21:40:45+02:00</time>
      </trkpt>
      <trkpt lat="46.45725" lon="-1.7128">
        <ele>9</ele>
        <time>2017-04-30T21:40:50+02:00</time>
      </trkpt>
      <trkpt lat="46.45727" lon="-1.71302">
        <ele>7</ele>
        <time>2017-04-30T21:40:55+02:00</time>
      </trkpt>
      <trkpt lat="46.45736" lon="-1.7131">
        <ele>7</ele>
        <time>2017-04-30T21:41:00+02:00</time>
      </trkpt>
      <trkpt lat="46.45753" lon="-1.7131">
        <ele>8</ele>
        <time>2017-04-30T21:41:05+02:00</time>
      </trkpt>
      <trkpt lat="46.4582" lon="-1.71361">
        <ele>5</ele>
        <time>2017-04-30T21:41:10+02:00</time>
      </trkpt>
      <trkpt lat="46.45861" lon="-1.71383">
        <ele>4</ele>
        <time>2017-04-30T21:41:15+02:00</time>
      </trkpt>
      <trkpt lat="46.45897" lon="-1.71415">
        <ele>4</ele>
        <time>2017-04-30T21:41:20+02:00</time>
      </trkpt>
      <trkpt lat="46.45909" lon="-1.71466">
        <ele>5</ele>
        <time>2017-04-30T21:41:25+02:00</time>
      </trkpt>
      <trkpt lat="46.4592" lon="-1.71497">
        <ele>6</ele>
        <time>2017-04-30T21:41:30+02:00</time>
      </trkpt>
      <trkpt lat="46.45938" lon="-1.7152">
        <ele>8</ele>
        <time>2017-04-30T21:41:35+02:00</time>
      </trkpt>
      <trkpt lat="46.4592" lon="-1.71549">
        <ele>8</ele>
        <time>2017-04-30T21:41:40+02:00</time>
      </trkpt>
      <trkpt lat="46.45895" lon="-1.71574">
        <ele>7</ele>
        <time>2017-04-30T21:41:45+02:00</time>
      </trkpt>
      <trkpt lat="46.4592" lon="-1.71548">
        <ele>8</ele>
        <time>2017-04-30T21:41:50+02:00</time>
      </trkpt>
      <trkpt lat="46.45937" lon="-1.71519">
        <ele>8</ele>
        <time>2017-04-30T21:41:55+02:00</time>
      </trkpt>
      <trkpt lat="46.4594" lon="-1.71495">
        <ele>7</ele>
        <time>2017-04-30T21:42:00+02:00</time>
      </trkpt>
      <trkpt lat="46.45949" lon="-1.71471">
        <ele>8</ele>
        <time>2017-04-30T21:42:05+02:00</time>
      </trkpt>
      <trkpt lat="46.45968" lon="-1.7145">
        <ele>9</ele>
        <time>2017-04-30T21:42:10+02:00</time>
      </trkpt>
      <trkpt lat="46.45991" lon="-1.71437">
        <ele>10</ele>
        <time>2017-04-30T21:42:15+02:00</time>
      </trkpt>
      <trkpt lat="46.46059" lon="-1.71408">
        <ele>16</ele>
        <time>2017-04-30T21:42:20+02:00</time>
      </trkpt>
      <trkpt lat="46.46093" lon="-1.71399">
        <ele>18</ele>
        <time>2017-04-30T21:42:25+02:00</time>
      </trkpt>
      <trkpt lat="46.46162" lon="-1.71404">
        <ele>18</ele>
        <time>2017-04-30T21:42:30+02:00</time>
      </trkpt>
      <trkpt lat="46.46257" lon="-1.71334">
        <ele>19</ele>
        <time>2017-04-30T21:42:35+02:00</time>
      </trkpt>
      <trkpt lat="46.46296" lon="-1.7131">
        <ele>20</ele>
        <time>2017-04-30T21:42:40+02:00</time>
      </trkpt>
      <trkpt lat="46.46331" lon="-1.71303">
        <ele>21</ele>
        <time>2017-04-30T21:42:45+02:00</time>
      </trkpt>
      <trkpt lat="46.4631" lon="-1.71233">
        <ele>20</ele>
        <time>2017-04-30T21:42:50+02:00</time>
      </trkpt>
      <trkpt lat="46.46299" lon="-1.71063">
        <ele>14</ele>
        <time>2017-04-30T21:42:55+02:00</time>
      </trkpt>
      <trkpt lat="46.46281" lon="-1.70969">
        <ele>9</ele>
        <time>2017-04-30T21:43:00+02:00</time>
      </trkpt>
      <trkpt lat="46.46276" lon="-1.70927">
        <ele>6</ele>
        <time>2017-04-30T21:43:05+02:00</time>
      </trkpt>
      <trkpt lat="46.46268" lon="-1.70878">
        <ele>7</ele>
        <time>2017-04-30T21:43:10+02:00</time>
      </trkpt>
      <trkpt lat="46.4627" lon="-1.7084">
        <ele>8</ele>
        <time>2017-04-30T21:43:15+02:00</time>
      </trkpt>
      <trkpt lat="46.46294" lon="-1.70803">
        <ele>9</ele>
        <time>2017-04-30T21:43:20+02:00</time>
      </trkpt>
      <trkpt lat="46.46299" lon="-1.70766">
        <ele>11</ele>
        <time>2017-04-30T21:43:25+02:00</time>
      </trkpt>
      <trkpt lat="46.46295" lon="-1.70729">
        <ele>12</ele>
        <time>2017-04-30T21:43:30+02:00</time>
      </trkpt>
      <trkpt lat="46.46279" lon="-1.70647">
        <ele>15</ele>
        <time>2017-04-30T21:43:35+02:00</time>
      </trkpt>
      <trkpt lat="46.46253" lon="-1.70586">
        <ele>18</ele>
        <time>2017-04-30T21:43:40+02:00</time>
      </trkpt>
      <trkpt lat="46.46217" lon="-1.70517">
        <ele>20</ele>
        <time>2017-04-30T21:43:45+02:00</time>
      </trkpt>
      <trkpt lat="46.46179" lon="-1.70437">
        <ele>22</ele>
        <time>2017-04-30T21:43:50+02:00</time>
      </trkpt>
      <trkpt lat="46.46157" lon="-1.70395">
        <ele>22</ele>
        <time>2017-04-30T21:43:55+02:00</time>
      </trkpt>
      <trkpt lat="46.46143" lon="-1.70352">
        <ele>22</ele>
        <time>2017-04-30T21:44:00+02:00</time>
      </trkpt>
      <trkpt lat="46.46118" lon="-1.7036">
        <ele>23</ele>
        <time>2017-04-30T21:44:05+02:00</time>
      </trkpt>
      <trkpt lat="46.46042" lon="-1.70349">
        <ele>24</ele>
        <time>2017-04-30T21:44:10+02:00</time>
      </trkpt>
      <trkpt lat="46.45941" lon="-1.70355">
        <ele>24</ele>
        <time>2017-04-30T21:44:15+02:00</time>
      </trkpt>
      <trkpt lat="46.45894" lon="-1.70354">
        <ele>24</ele>
        <time>2017-04-30T21:44:20+02:00</time>
      </trkpt>
      <trkpt lat="46.45854" lon="-1.70345">
        <ele>24</ele>
        <time>2017-04-30T21:44:25+02:00</time>
      </trkpt>
      <trkpt lat="46.4579" lon="-1.70333">
        <ele>24</ele>
        <time>2017-04-30T21:44:30+02:00</time>
      </trkpt>
      <trkpt lat="46.45774" lon="-1.7033">
        <ele>24</ele>
        <time>2017-04-30T21:44:35+02:00</time>
      </trkpt>
      <trkpt lat="46.45705" lon="-1.70351">
        <ele>23</ele>
        <time>2017-04-30T21:44:40+02:00</time>
      </trkpt>
      <trkpt lat="46.45662" lon="-1.70359">
        <ele>23</ele>
        <time>2017-04-30T21:44:45+02:00</time>
      </trkpt>
      <trkpt lat="46.4562" lon="-1.70359">
        <ele>23</ele>
        <time>2017-04-30T21:44:50+02:00</time>
      </trkpt>
      <trkpt lat="46.45571" lon="-1.70177">
        <ele>23</ele>
        <time>2017-04-30T21:44:55+02:00</time>
      </trkpt>
      <trkpt lat="46.45526" lon="-1.70003">
        <ele>24</ele>
        <time>2017-04-30T21:45:00+02:00</time>
      </trkpt>
      <trkpt lat="46.4547" lon="-1.69833">
        <ele>23</ele>
        <time>2017-04-30T21:45:05+02:00</time>
      </trkpt>
      <trkpt lat="46.45447" lon="-1.69738">
        <ele>22</ele>
        <time>2017-04-30T21:45:10+02:00</time>
      </trkpt>
      <trkpt lat="46.45428" lon="-1.69644">
        <ele>21</ele>
        <time>2017-04-30T21:45:15+02:00</time>
      </trkpt>
      <trkpt lat="46.45412" lon="-1.69644">
        <ele>20</ele>
        <time>2017-04-30T21:45:20+02:00</time>
      </trkpt>
      <trkpt lat="46.45402" lon="-1.69651">
        <ele>20</ele>
        <time>2017-04-30T21:45:25+02:00</time>
      </trkpt>
      <trkpt lat="46.45387" lon="-1.69655">
        <ele>19</ele>
        <time>2017-04-30T21:45:30+02:00</time>
      </trkpt>
      <trkpt lat="46.45363" lon="-1.69647">
        <ele>18</ele>
        <time>2017-04-30T21:45:35+02:00</time>
      </trkpt>
      <trkpt lat="46.45346" lon="-1.69639">
        <ele>17</ele>
        <time>2017-04-30T21:45:40+02:00</time>
      </trkpt>
      <trkpt lat="46.45334" lon="-1.69624">
        <ele>16</ele>
        <time>2017-04-30T21:45:45+02:00</time>
      </trkpt>
      <trkpt lat="46.45317" lon="-1.69598">
        <ele>15</ele>
        <time>2017-04-30T21:45:50+02:00</time>
      </trkpt>
      <trkpt lat="46.45286" lon="-1.69598">
        <ele>14</ele>
        <time>2017-04-30T21:45:55+02:00</time>
      </trkpt>
      <trkpt lat="46.45272" lon="-1.69595">
        <ele>13</ele>
        <time>2017-04-30T21:46:00+02:00</time>
      </trkpt>
      <trkpt lat="46.45259" lon="-1.69584">
        <ele>12</ele>
        <time>2017-04-30T21:46:05+02:00</time>
      </trkpt>
      <trkpt lat="46.45257" lon="-1.6957">
        <ele>12</ele>
        <time>2017-04-30T21:46:10+02:00</time>
      </trkpt>
      <trkpt lat="46.4525" lon="-1.69548">
        <ele>12</ele>
        <time>2017-04-30T21:46:15+02:00</time>
      </trkpt>
      <trkpt lat="46.45246" lon="-1.69521">
        <ele>11</ele>
        <time>2017-04-30T21:46:20+02:00</time>
      </trkpt>
      <trkpt lat="46.45238" lon="-1.69489">
        <ele>10</ele>
        <time>2017-04-30T21:46:25+02:00</time>
      </trkpt>
      <trkpt lat="46.45178" lon="-1.69239">
        <ele>8</ele>
        <time>2017-04-30T21:46:30+02:00</time>
      </trkpt>
      <trkpt lat="46.45178" lon="-1.6924">
        <ele>8</ele>
        <time>2017-04-30T21:46:35+02:00</time>
      </trkpt>
      <trkpt lat="46.45093" lon="-1.69284">
        <ele>8</ele>
        <time>2017-04-30T21:46:40+02:00</time>
      </trkpt>
      <trkpt lat="46.44981" lon="-1.69346">
        <ele>9</ele>
        <time>2017-04-30T21:46:45+02:00</time>
      </trkpt>
      <trkpt lat="46.44914" lon="-1.69389">
        <ele>10</ele>
        <time>2017-04-30T21:46:50+02:00</time>
      </trkpt>
      <trkpt lat="46.44886" lon="-1.694">
        <ele>11</ele>
        <time>2017-04-30T21:46:55+02:00</time>
      </trkpt>
      <trkpt lat="46.44864" lon="-1.6939">
        <ele>11</ele>
        <time>2017-04-30T21:47:00+02:00</time>
      </trkpt>
      <trkpt lat="46.44843" lon="-1.69376">
        <ele>10</ele>
        <time>2017-04-30T21:47:05+02:00</time>
      </trkpt>
      <trkpt lat="46.44811" lon="-1.69369">
        <ele>10</ele>
        <time>2017-04-30T21:47:10+02:00</time>
      </trkpt>
      <trkpt lat="46.4479" lon="-1.69387">
        <ele>11</ele>
        <time>2017-04-30T21:47:15+02:00</time>
      </trkpt>
      <trkpt lat="46.44771" lon="-1.69422">
        <ele>11</ele>
        <time>2017-04-30T21:47:20+02:00</time>
      </trkpt>
      <trkpt lat="46.44756" lon="-1.69459">
        <ele>10</ele>
        <time>2017-04-30T21:47:25+02:00</time>
      </trkpt>
      <trkpt lat="46.44737" lon="-1.69475">
        <ele>10</ele>
        <time>2017-04-30T21:47:30+02:00</time>
      </trkpt>
      <trkpt lat="46.44703" lon="-1.69475">
        <ele>9</ele>
        <time>2017-04-30T21:47:35+02:00</time>
      </trkpt>
      <trkpt lat="46.44675" lon="-1.69468">
        <ele>8</ele>
        <time>2017-04-30T21:47:40+02:00</time>
      </trkpt>
      <trkpt lat="46.44648" lon="-1.6947">
        <ele>8</ele>
        <time>2017-04-30T21:47:45+02:00</time>
      </trkpt>
      <trkpt lat="46.44629" lon="-1.69466">
        <ele>8</ele>
        <time>2017-04-30T21:47:50+02:00</time>
      </trkpt>
      <trkpt lat="46.44611" lon="-1.69406">
        <ele>11</ele>
        <time>2017-04-30T21:47:55+02:00</time>
      </trkpt>
      <trkpt lat="46.44594" lon="-1.69291">
        <ele>14</ele>
        <time>2017-04-30T21:48:00+02:00</time>
      </trkpt>
      <trkpt lat="46.44605" lon="-1.69202">
        <ele>15</ele>
        <time>2017-04-30T21:48:05+02:00</time>
      </trkpt>
      <trkpt lat="46.44599" lon="-1.6914">
        <ele>17</ele>
        <time>2017-04-30T21:48:10+02:00</time>
      </trkpt>
      <trkpt lat="46.44595" lon="-1.691">
        <ele>18</ele>
        <time>2017-04-30T21:48:15+02:00</time>
      </trkpt>
      <trkpt lat="46.44607" lon="-1.69053">
        <ele>19</ele>
        <time>2017-04-30T21:48:20+02:00</time>
      </trkpt>
      <trkpt lat="46.44617" lon="-1.69023">
        <ele>20</ele>
        <time>2017-04-30T21:48:25+02:00</time>
      </trkpt>
      <trkpt lat="46.44625" lon="-1.6899">
        <ele>21</ele>
        <time>2017-04-30T21:48:30+02:00</time>
      </trkpt>
      <trkpt lat="46.44628" lon="-1.68945">
        <ele>20</ele>
        <time>2017-04-30T21:48:35+02:00</time>
      </trkpt>
      <trkpt lat="46.44619" lon="-1.68898">
        <ele>21</ele>
        <time>2017-04-30T21:48:40+02:00</time>
      </trkpt>
      <trkpt lat="46.446" lon="-1.68841">
        <ele>21</ele>
        <time>2017-04-30T21:48:45+02:00</time>
      </trkpt>
      <trkpt lat="46.44576" lon="-1.6878">
        <ele>21</ele>
        <time>2017-04-30T21:48:50+02:00</time>
      </trkpt>
      <trkpt lat="46.44566" lon="-1.68714">
        <ele>20</ele>
        <time>2017-04-30T21:48:55+02:00</time>
      </trkpt>
      <trkpt lat="46.44569" lon="-1.68647">
        <ele>19</ele>
        <time>2017-04-30T21:49:00+02:00</time>
      </trkpt>
      <trkpt lat="46.44555" lon="-1.686">
        <ele>19</ele>
        <time>2017-04-30T21:49:05+02:00</time>
      </trkpt>
      <trkpt lat="46.44534" lon="-1.6852">
        <ele>20</ele>
        <time>2017-04-30T21:49:10+02:00</time>
      </trkpt>
      <trkpt lat="46.44564" lon="-1.685">
        <ele>17</ele>
        <time>2017-04-30T21:49:15+02:00</time>
      </trkpt>
      <trkpt lat="46.44576" lon="-1.68437">
        <ele>19</ele>
        <time>2017-04-30T21:49:20+02:00</time>
      </trkpt>
      <trkpt lat="46.44595" lon="-1.68362">
        <ele>19</ele>
        <time>2017-04-30T21:49:25+02:00</time>
      </trkpt>
      <trkpt lat="46.4461" lon="-1.68332">
        <ele>19</ele>
        <time>2017-04-30T21:49:30+02:00</time>
      </trkpt>
      <trkpt lat="46.44639" lon="-1.68325">
        <ele>18</ele>
        <time>2017-04-30T21:49:35+02:00</time>
      </trkpt>
      <trkpt lat="46.44633" lon="-1.68159">
        <ele>19</ele>
        <time>2017-04-30T21:49:40+02:00</time>
      </trkpt>
      <trkpt lat="46.44629" lon="-1.68046">
        <ele>18</ele>
        <time>2017-04-30T21:49:45+02:00</time>
      </trkpt>
      <trkpt lat="46.44633" lon="-1.67942">
        <ele>18</ele>
        <time>2017-04-30T21:49:50+02:00</time>
      </trkpt>
      <trkpt lat="46.44655" lon="-1.6791">
        <ele>18</ele>
        <time>2017-04-30T21:49:55+02:00</time>
      </trkpt>
      <trkpt lat="46.44654" lon="-1.679">
        <ele>18</ele>
        <time>2017-04-30T21:50:00+02:00</time>
      </trkpt>
      <trkpt lat="46.44655" lon="-1.67889">
        <ele>17</ele>
        <time>2017-04-30T21:50:05+02:00</time>
      </trkpt>
    </trkseg>
  </trk>
</gpx>